sensor_id;sensor_type;location;lat;lon;timestamp;P1;durP1;ratioP1;P2;durP2;ratioP2
17197;SDS011;8715;51.010;6.812;2022-12-11T00:01:39;190.80;;;174.67;;
17197;SDS011;8715;51.010;6.812;2022-12-11T00:04:04;184.20;;;169.07;;
17197;SDS011;8715;51.010;6.812;2022-12-11T00:06:30;182.33;;;167.37;;
17197;SDS011;8715;51.010;6.812;2022-12-11T00:08:55;184.10;;;169.73;;
17197;SDS011;8715;51.010;6.812;2022-12-11T00:11:21;169.32;;;154.75;;
17197;SDS011;8715;51.010;6.812;2022-12-11T00:13:47;178.40;;;163.05;;
17197;SDS011;8715;51.010;6.812;2022-12-11T00:16:12;183.07;;;167.98;;
17197;SDS011;8715;51.010;6.812;2022-12-11T00:18:37;189.07;;;174.40;;
17197;SDS011;8715;51.010;6.812;2022-12-11T00:21:03;180.10;;;164.43;;
17197;SDS011;8715;51.010;6.812;2022-12-11T00:23:30;178.02;;;162.98;;
17197;SDS011;8715;51.010;6.812;2022-12-11T00:25:55;177.48;;;162.45;;
17197;SDS011;8715;51.010;6.812;2022-12-11T00:28:20;184.50;;;169.67;;
17197;SDS011;8715;51.010;6.812;2022-12-11T00:30:46;180.38;;;166.80;;
17197;SDS011;8715;51.010;6.812;2022-12-11T00:33:12;183.20;;;168.93;;
17197;SDS011;8715;51.010;6.812;2022-12-11T00:35:42;174.27;;;161.10;;
17197;SDS011;8715;51.010;6.812;2022-12-11T00:38:11;190.38;;;175.23;;
17197;SDS011;8715;51.010;6.812;2022-12-11T00:40:39;181.55;;;167.32;;
17197;SDS011;8715;51.010;6.812;2022-12-11T00:43:04;184.05;;;169.65;;
17197;SDS011;8715;51.010;6.812;2022-12-11T00:45:30;186.53;;;172.77;;
17197;SDS011;8715;51.010;6.812;2022-12-11T00:47:55;183.80;;;169.43;;
17197;SDS011;8715;51.010;6.812;2022-12-11T00:50:20;188.13;;;172.83;;
17197;SDS011;8715;51.010;6.812;2022-12-11T00:52:46;186.07;;;171.18;;
17197;SDS011;8715;51.010;6.812;2022-12-11T00:55:11;182.47;;;168.60;;
17197;SDS011;8715;51.010;6.812;2022-12-11T00:57:37;182.93;;;168.90;;
17197;SDS011;8715;51.010;6.812;2022-12-11T01:00:03;190.82;;;174.57;;
17197;SDS011;8715;51.010;6.812;2022-12-11T01:02:31;190.13;;;174.88;;
17197;SDS011;8715;51.010;6.812;2022-12-11T01:04:57;179.10;;;164.25;;
17197;SDS011;8715;51.010;6.812;2022-12-11T01:07:22;185.23;;;169.63;;
17197;SDS011;8715;51.010;6.812;2022-12-11T01:09:48;194.70;;;180.15;;
17197;SDS011;8715;51.010;6.812;2022-12-11T01:12:32;189.50;;;174.35;;
17197;SDS011;8715;51.010;6.812;2022-12-11T01:14:57;184.30;;;169.88;;
17197;SDS011;8715;51.010;6.812;2022-12-11T01:17:22;181.77;;;167.80;;
17197;SDS011;8715;51.010;6.812;2022-12-11T01:19:48;186.05;;;170.82;;
17197;SDS011;8715;51.010;6.812;2022-12-11T01:22:13;184.10;;;167.97;;
17197;SDS011;8715;51.010;6.812;2022-12-11T01:24:38;187.60;;;171.95;;
17197;SDS011;8715;51.010;6.812;2022-12-11T01:27:04;231.60;;;214.33;;
17197;SDS011;8715;51.010;6.812;2022-12-11T01:29:29;181.85;;;166.95;;
17197;SDS011;8715;51.010;6.812;2022-12-11T01:31:54;179.57;;;165.73;;
17197;SDS011;8715;51.010;6.812;2022-12-11T01:34:20;193.45;;;177.70;;
17197;SDS011;8715;51.010;6.812;2022-12-11T01:36:45;186.50;;;172.15;;
17197;SDS011;8715;51.010;6.812;2022-12-11T01:39:11;200.33;;;183.13;;
17197;SDS011;8715;51.010;6.812;2022-12-11T01:41:36;228.80;;;212.25;;
17197;SDS011;8715;51.010;6.812;2022-12-11T01:45:11;196.00;;;179.67;;
17197;SDS011;8715;51.010;6.812;2022-12-11T01:46:52;189.23;;;173.43;;
17197;SDS011;8715;51.010;6.812;2022-12-11T01:49:19;191.20;;;175.43;;
17197;SDS011;8715;51.010;6.812;2022-12-11T01:51:48;197.75;;;181.50;;
17197;SDS011;8715;51.010;6.812;2022-12-11T01:54:16;183.23;;;167.52;;
17197;SDS011;8715;51.010;6.812;2022-12-11T01:56:44;183.70;;;167.90;;
17197;SDS011;8715;51.010;6.812;2022-12-11T01:59:10;188.73;;;172.15;;
17197;SDS011;8715;51.010;6.812;2022-12-11T02:01:39;180.35;;;165.15;;
17197;SDS011;8715;51.010;6.812;2022-12-11T02:04:06;185.30;;;169.73;;
17197;SDS011;8715;51.010;6.812;2022-12-11T02:06:36;176.80;;;161.50;;
17197;SDS011;8715;51.010;6.812;2022-12-11T02:09:07;187.02;;;173.02;;
17197;SDS011;8715;51.010;6.812;2022-12-11T02:11:44;194.05;;;177.27;;
17197;SDS011;8715;51.010;6.812;2022-12-11T02:17:13;192.57;;;178.50;;
17197;SDS011;8715;51.010;6.812;2022-12-11T02:25:02;188.52;;;174.20;;
17197;SDS011;8715;51.010;6.812;2022-12-11T02:30:04;197.95;;;181.82;;
17197;SDS011;8715;51.010;6.812;2022-12-11T02:32:36;185.63;;;171.70;;
17197;SDS011;8715;51.010;6.812;2022-12-11T02:35:12;185.73;;;172.43;;
17197;SDS011;8715;51.010;6.812;2022-12-11T02:37:52;191.05;;;176.43;;
17197;SDS011;8715;51.010;6.812;2022-12-11T02:40:22;171.32;;;159.02;;
17197;SDS011;8715;51.010;6.812;2022-12-11T02:42:49;186.18;;;172.85;;
17197;SDS011;8715;51.010;6.812;2022-12-11T02:45:15;174.00;;;160.90;;
17197;SDS011;8715;51.010;6.812;2022-12-11T02:47:42;180.35;;;166.85;;
17197;SDS011;8715;51.010;6.812;2022-12-11T02:50:11;192.65;;;176.45;;
17197;SDS011;8715;51.010;6.812;2022-12-11T02:52:39;187.45;;;174.27;;
17197;SDS011;8715;51.010;6.812;2022-12-11T02:55:05;180.80;;;167.68;;
17197;SDS011;8715;51.010;6.812;2022-12-11T02:57:50;183.63;;;170.27;;
17197;SDS011;8715;51.010;6.812;2022-12-11T03:00:43;176.40;;;163.23;;
17197;SDS011;8715;51.010;6.812;2022-12-11T03:03:09;175.43;;;162.98;;
17197;SDS011;8715;51.010;6.812;2022-12-11T03:05:35;169.52;;;156.93;;
17197;SDS011;8715;51.010;6.812;2022-12-11T03:08:00;185.80;;;171.97;;
17197;SDS011;8715;51.010;6.812;2022-12-11T03:10:26;189.05;;;174.57;;
17197;SDS011;8715;51.010;6.812;2022-12-11T03:12:52;192.77;;;179.30;;
17197;SDS011;8715;51.010;6.812;2022-12-11T03:15:20;180.93;;;167.63;;
17197;SDS011;8715;51.010;6.812;2022-12-11T03:25:56;175.70;;;163.77;;
17197;SDS011;8715;51.010;6.812;2022-12-11T03:28:29;169.05;;;157.25;;
17197;SDS011;8715;51.010;6.812;2022-12-11T03:30:57;176.07;;;162.35;;
17197;SDS011;8715;51.010;6.812;2022-12-11T03:36:02;178.27;;;165.45;;
17197;SDS011;8715;51.010;6.812;2022-12-11T03:38:32;170.00;;;157.23;;
17197;SDS011;8715;51.010;6.812;2022-12-11T03:41:02;185.68;;;172.18;;
17197;SDS011;8715;51.010;6.812;2022-12-11T03:43:28;185.50;;;172.73;;
17197;SDS011;8715;51.010;6.812;2022-12-11T03:45:56;183.52;;;169.23;;
17197;SDS011;8715;51.010;6.812;2022-12-11T03:48:22;190.40;;;177.57;;
17197;SDS011;8715;51.010;6.812;2022-12-11T03:50:49;169.63;;;158.55;;
17197;SDS011;8715;51.010;6.812;2022-12-11T03:53:15;183.73;;;171.45;;
17197;SDS011;8715;51.010;6.812;2022-12-11T03:55:42;199.60;;;186.98;;
17197;SDS011;8715;51.010;6.812;2022-12-11T03:58:09;180.77;;;169.23;;
17197;SDS011;8715;51.010;6.812;2022-12-11T04:00:34;180.48;;;167.63;;
17197;SDS011;8715;51.010;6.812;2022-12-11T04:03:00;186.88;;;174.70;;
17197;SDS011;8715;51.010;6.812;2022-12-11T04:05:37;183.43;;;172.13;;
17197;SDS011;8715;51.010;6.812;2022-12-11T04:08:03;171.88;;;160.85;;
17197;SDS011;8715;51.010;6.812;2022-12-11T04:10:28;179.18;;;167.85;;
17197;SDS011;8715;51.010;6.812;2022-12-11T04:12:54;186.40;;;174.43;;
17197;SDS011;8715;51.010;6.812;2022-12-11T04:15:19;178.98;;;166.20;;
17197;SDS011;8715;51.010;6.812;2022-12-11T04:17:44;175.43;;;164.02;;
17197;SDS011;8715;51.010;6.812;2022-12-11T04:20:28;174.07;;;162.13;;
17197;SDS011;8715;51.010;6.812;2022-12-11T04:23:12;175.57;;;164.23;;
17197;SDS011;8715;51.010;6.812;2022-12-11T04:26:11;182.02;;;169.65;;
17197;SDS011;8715;51.010;6.812;2022-12-11T04:31:10;166.93;;;155.20;;
17197;SDS011;8715;51.010;6.812;2022-12-11T04:33:42;175.57;;;163.20;;
17197;SDS011;8715;51.010;6.812;2022-12-11T04:36:08;180.35;;;169.13;;
17197;SDS011;8715;51.010;6.812;2022-12-11T04:38:34;178.02;;;166.10;;
17197;SDS011;8715;51.010;6.812;2022-12-11T04:41:04;180.40;;;168.68;;
17197;SDS011;8715;51.010;6.812;2022-12-11T04:43:31;171.95;;;160.60;;
17197;SDS011;8715;51.010;6.812;2022-12-11T04:46:00;175.65;;;163.55;;
17197;SDS011;8715;51.010;6.812;2022-12-11T04:48:30;176.50;;;164.50;;
17197;SDS011;8715;51.010;6.812;2022-12-11T04:50:55;183.73;;;171.50;;
17197;SDS011;8715;51.010;6.812;2022-12-11T04:53:21;185.80;;;173.93;;
17197;SDS011;8715;51.010;6.812;2022-12-11T04:55:46;185.68;;;173.45;;
17197;SDS011;8715;51.010;6.812;2022-12-11T04:58:13;180.52;;;168.25;;
17197;SDS011;8715;51.010;6.812;2022-12-11T05:00:39;185.10;;;172.10;;
17197;SDS011;8715;51.010;6.812;2022-12-11T05:03:05;176.52;;;164.40;;
17197;SDS011;8715;51.010;6.812;2022-12-11T05:05:30;182.85;;;170.30;;
17197;SDS011;8715;51.010;6.812;2022-12-11T05:07:55;185.80;;;172.70;;
17197;SDS011;8715;51.010;6.812;2022-12-11T05:10:21;172.90;;;161.05;;
17197;SDS011;8715;51.010;6.812;2022-12-11T05:12:46;169.63;;;157.18;;
17197;SDS011;8715;51.010;6.812;2022-12-11T05:15:12;176.07;;;164.30;;
17197;SDS011;8715;51.010;6.812;2022-12-11T05:17:37;168.70;;;156.77;;
17197;SDS011;8715;51.010;6.812;2022-12-11T05:20:02;179.27;;;165.82;;
17197;SDS011;8715;51.010;6.812;2022-12-11T05:22:28;170.32;;;158.18;;
17197;SDS011;8715;51.010;6.812;2022-12-11T05:24:54;179.82;;;167.63;;
17197;SDS011;8715;51.010;6.812;2022-12-11T05:27:20;175.82;;;164.07;;
17197;SDS011;8715;51.010;6.812;2022-12-11T05:29:45;173.93;;;161.85;;
17197;SDS011;8715;51.010;6.812;2022-12-11T05:32:10;183.33;;;170.77;;
17197;SDS011;8715;51.010;6.812;2022-12-11T05:34:36;168.25;;;156.50;;
17197;SDS011;8715;51.010;6.812;2022-12-11T05:37:01;175.88;;;163.55;;
17197;SDS011;8715;51.010;6.812;2022-12-11T05:39:27;177.10;;;165.13;;
17197;SDS011;8715;51.010;6.812;2022-12-11T05:41:52;179.03;;;166.77;;
17197;SDS011;8715;51.010;6.812;2022-12-11T05:44:17;182.63;;;170.50;;
17197;SDS011;8715;51.010;6.812;2022-12-11T05:46:43;181.52;;;169.10;;
17197;SDS011;8715;51.010;6.812;2022-12-11T05:49:09;183.75;;;172.40;;
17197;SDS011;8715;51.010;6.812;2022-12-11T05:51:34;174.60;;;161.77;;
17197;SDS011;8715;51.010;6.812;2022-12-11T05:54:00;172.13;;;160.48;;
17197;SDS011;8715;51.010;6.812;2022-12-11T05:56:29;179.77;;;167.10;;
17197;SDS011;8715;51.010;6.812;2022-12-11T05:58:57;187.93;;;174.98;;
17197;SDS011;8715;51.010;6.812;2022-12-11T06:03:56;191.55;;;178.68;;
17197;SDS011;8715;51.010;6.812;2022-12-11T06:06:22;172.75;;;160.88;;
17197;SDS011;8715;51.010;6.812;2022-12-11T06:08:48;187.82;;;174.40;;
17197;SDS011;8715;51.010;6.812;2022-12-11T06:11:15;181.98;;;169.98;;
17197;SDS011;8715;51.010;6.812;2022-12-11T06:13:40;177.88;;;166.15;;
17197;SDS011;8715;51.010;6.812;2022-12-11T06:16:06;184.52;;;171.90;;
17197;SDS011;8715;51.010;6.812;2022-12-11T06:18:35;185.00;;;172.73;;
17197;SDS011;8715;51.010;6.812;2022-12-11T06:21:09;174.20;;;162.00;;
17197;SDS011;8715;51.010;6.812;2022-12-11T06:23:42;177.48;;;165.68;;
17197;SDS011;8715;51.010;6.812;2022-12-11T06:26:08;168.77;;;157.48;;
17197;SDS011;8715;51.010;6.812;2022-12-11T06:28:34;180.38;;;167.88;;
17197;SDS011;8715;51.010;6.812;2022-12-11T06:30:59;174.10;;;162.45;;
17197;SDS011;8715;51.010;6.812;2022-12-11T06:33:25;173.70;;;161.73;;
17197;SDS011;8715;51.010;6.812;2022-12-11T06:35:50;169.50;;;157.87;;
17197;SDS011;8715;51.010;6.812;2022-12-11T06:38:16;174.82;;;163.85;;
17197;SDS011;8715;51.010;6.812;2022-12-11T06:40:41;178.25;;;166.45;;
17197;SDS011;8715;51.010;6.812;2022-12-11T06:43:07;183.98;;;172.00;;
17197;SDS011;8715;51.010;6.812;2022-12-11T06:45:32;177.17;;;166.07;;
17197;SDS011;8715;51.010;6.812;2022-12-11T06:47:57;181.65;;;170.15;;
17197;SDS011;8715;51.010;6.812;2022-12-11T06:50:23;174.33;;;162.47;;
17197;SDS011;8715;51.010;6.812;2022-12-11T06:52:48;183.17;;;170.83;;
17197;SDS011;8715;51.010;6.812;2022-12-11T06:55:13;221.77;;;208.40;;
17197;SDS011;8715;51.010;6.812;2022-12-11T06:57:39;183.63;;;172.23;;
17197;SDS011;8715;51.010;6.812;2022-12-11T07:00:04;195.80;;;182.10;;
17197;SDS011;8715;51.010;6.812;2022-12-11T07:02:30;176.85;;;165.45;;
17197;SDS011;8715;51.010;6.812;2022-12-11T07:04:56;175.57;;;164.20;;
17197;SDS011;8715;51.010;6.812;2022-12-11T07:07:21;171.50;;;160.10;;
17197;SDS011;8715;51.010;6.812;2022-12-11T07:09:47;185.23;;;173.40;;
17197;SDS011;8715;51.010;6.812;2022-12-11T07:12:12;175.48;;;164.43;;
17197;SDS011;8715;51.010;6.812;2022-12-11T07:14:39;178.40;;;166.63;;
17197;SDS011;8715;51.010;6.812;2022-12-11T07:17:04;177.65;;;166.98;;
17197;SDS011;8715;51.010;6.812;2022-12-11T07:19:29;179.20;;;167.70;;
17197;SDS011;8715;51.010;6.812;2022-12-11T07:21:55;172.48;;;161.45;;
17197;SDS011;8715;51.010;6.812;2022-12-11T07:24:20;175.73;;;163.80;;
17197;SDS011;8715;51.010;6.812;2022-12-11T07:26:46;177.38;;;166.18;;
17197;SDS011;8715;51.010;6.812;2022-12-11T07:29:11;182.18;;;169.65;;
17197;SDS011;8715;51.010;6.812;2022-12-11T07:31:36;193.93;;;182.20;;
17197;SDS011;8715;51.010;6.812;2022-12-11T07:34:03;176.73;;;165.82;;
17197;SDS011;8715;51.010;6.812;2022-12-11T07:36:30;178.00;;;166.00;;
17197;SDS011;8715;51.010;6.812;2022-12-11T07:38:56;186.57;;;174.32;;
17197;SDS011;8715;51.010;6.812;2022-12-11T07:41:21;175.48;;;164.32;;
17197;SDS011;8715;51.010;6.812;2022-12-11T07:43:47;203.43;;;190.68;;
17197;SDS011;8715;51.010;6.812;2022-12-11T07:46:17;175.85;;;163.95;;
17197;SDS011;8715;51.010;6.812;2022-12-11T07:48:44;212.13;;;194.23;;
17197;SDS011;8715;51.010;6.812;2022-12-11T07:51:17;179.10;;;167.38;;
17197;SDS011;8715;51.010;6.812;2022-12-11T07:53:47;221.07;;;207.75;;
17197;SDS011;8715;51.010;6.812;2022-12-11T07:56:14;199.00;;;185.00;;
17197;SDS011;8715;51.010;6.812;2022-12-11T07:58:40;193.98;;;181.25;;
17197;SDS011;8715;51.010;6.812;2022-12-11T08:01:09;182.43;;;169.93;;
17197;SDS011;8715;51.010;6.812;2022-12-11T08:03:40;197.88;;;185.68;;
17197;SDS011;8715;51.010;6.812;2022-12-11T08:06:07;185.63;;;174.27;;
17197;SDS011;8715;51.010;6.812;2022-12-11T08:08:32;193.45;;;181.13;;
17197;SDS011;8715;51.010;6.812;2022-12-11T08:11:04;188.10;;;175.30;;
17197;SDS011;8715;51.010;6.812;2022-12-11T08:13:31;209.95;;;197.48;;
17197;SDS011;8715;51.010;6.812;2022-12-11T08:15:56;172.80;;;161.55;;
17197;SDS011;8715;51.010;6.812;2022-12-11T08:18:22;187.70;;;174.45;;
17197;SDS011;8715;51.010;6.812;2022-12-11T08:20:47;177.30;;;163.90;;
17197;SDS011;8715;51.010;6.812;2022-12-11T08:23:13;186.05;;;173.75;;
17197;SDS011;8715;51.010;6.812;2022-12-11T08:25:38;184.00;;;171.83;;
17197;SDS011;8715;51.010;6.812;2022-12-11T08:28:03;179.43;;;166.60;;
17197;SDS011;8715;51.010;6.812;2022-12-11T08:30:29;178.83;;;167.80;;
17197;SDS011;8715;51.010;6.812;2022-12-11T08:32:55;177.93;;;165.65;;
17197;SDS011;8715;51.010;6.812;2022-12-11T08:35:21;190.15;;;178.15;;
17197;SDS011;8715;51.010;6.812;2022-12-11T08:37:46;174.93;;;163.67;;
17197;SDS011;8715;51.010;6.812;2022-12-11T08:40:11;184.27;;;169.17;;
17197;SDS011;8715;51.010;6.812;2022-12-11T08:42:37;184.75;;;172.75;;
17197;SDS011;8715;51.010;6.812;2022-12-11T08:45:03;185.87;;;174.60;;
17197;SDS011;8715;51.010;6.812;2022-12-11T08:47:29;175.60;;;165.02;;
17197;SDS011;8715;51.010;6.812;2022-12-11T08:49:57;178.20;;;166.13;;
17197;SDS011;8715;51.010;6.812;2022-12-11T08:52:22;183.85;;;171.80;;
17197;SDS011;8715;51.010;6.812;2022-12-11T08:54:47;185.30;;;172.83;;
17197;SDS011;8715;51.010;6.812;2022-12-11T08:57:13;180.57;;;168.57;;
17197;SDS011;8715;51.010;6.812;2022-12-11T08:59:38;183.35;;;171.40;;
17197;SDS011;8715;51.010;6.812;2022-12-11T09:02:04;193.50;;;181.43;;
17197;SDS011;8715;51.010;6.812;2022-12-11T09:04:29;206.45;;;194.07;;
17197;SDS011;8715;51.010;6.812;2022-12-11T09:06:54;196.60;;;184.23;;
17197;SDS011;8715;51.010;6.812;2022-12-11T09:09:20;190.05;;;176.95;;
17197;SDS011;8715;51.010;6.812;2022-12-11T09:11:46;189.57;;;178.10;;
17197;SDS011;8715;51.010;6.812;2022-12-11T09:14:11;196.13;;;184.55;;
17197;SDS011;8715;51.010;6.812;2022-12-11T09:16:37;193.30;;;181.05;;
17197;SDS011;8715;51.010;6.812;2022-12-11T09:19:04;200.05;;;187.27;;
17197;SDS011;8715;51.010;6.812;2022-12-11T09:21:31;192.30;;;180.05;;
17197;SDS011;8715;51.010;6.812;2022-12-11T09:23:57;195.00;;;181.75;;
17197;SDS011;8715;51.010;6.812;2022-12-11T09:26:24;189.15;;;177.73;;
17197;SDS011;8715;51.010;6.812;2022-12-11T09:28:50;183.88;;;172.00;;
17197;SDS011;8715;51.010;6.812;2022-12-11T09:31:21;194.30;;;182.63;;
17197;SDS011;8715;51.010;6.812;2022-12-11T09:33:49;192.05;;;180.23;;
17197;SDS011;8715;51.010;6.812;2022-12-11T09:36:15;185.15;;;173.27;;
17197;SDS011;8715;51.010;6.812;2022-12-11T09:38:41;194.88;;;183.15;;
17197;SDS011;8715;51.010;6.812;2022-12-11T09:42:12;193.82;;;181.32;;
17197;SDS011;8715;51.010;6.812;2022-12-11T09:44:26;189.50;;;177.77;;
17197;SDS011;8715;51.010;6.812;2022-12-11T09:46:56;197.20;;;185.45;;
17197;SDS011;8715;51.010;6.812;2022-12-11T09:52:09;193.52;;;181.82;;
17197;SDS011;8715;51.010;6.812;2022-12-11T09:54:35;210.35;;;197.98;;
17197;SDS011;8715;51.010;6.812;2022-12-11T10:03:01;197.63;;;185.40;;
17197;SDS011;8715;51.010;6.812;2022-12-11T10:08:27;201.48;;;189.20;;
17197;SDS011;8715;51.010;6.812;2022-12-11T10:11:04;202.43;;;189.60;;
17197;SDS011;8715;51.010;6.812;2022-12-11T10:16:39;203.35;;;189.95;;
17197;SDS011;8715;51.010;6.812;2022-12-11T10:19:13;198.57;;;186.50;;
17197;SDS011;8715;51.010;6.812;2022-12-11T10:21:42;206.02;;;192.35;;
17197;SDS011;8715;51.010;6.812;2022-12-11T10:24:19;214.45;;;202.05;;
17197;SDS011;8715;51.010;6.812;2022-12-11T10:26:51;197.68;;;185.30;;
17197;SDS011;8715;51.010;6.812;2022-12-11T10:29:19;217.73;;;203.82;;
17197;SDS011;8715;51.010;6.812;2022-12-11T10:31:55;200.48;;;188.00;;
17197;SDS011;8715;51.010;6.812;2022-12-11T10:34:25;205.52;;;193.18;;
17197;SDS011;8715;51.010;6.812;2022-12-11T10:36:51;206.80;;;194.55;;
17197;SDS011;8715;51.010;6.812;2022-12-11T10:39:18;204.73;;;191.65;;
17197;SDS011;8715;51.010;6.812;2022-12-11T10:41:47;202.13;;;189.45;;
17197;SDS011;8715;51.010;6.812;2022-12-11T10:46:42;203.75;;;190.07;;
17197;SDS011;8715;51.010;6.812;2022-12-11T10:49:19;202.13;;;188.65;;
17197;SDS011;8715;51.010;6.812;2022-12-11T10:51:53;201.23;;;188.95;;
17197;SDS011;8715;51.010;6.812;2022-12-11T10:56:49;205.23;;;191.90;;
17197;SDS011;8715;51.010;6.812;2022-12-11T10:59:21;211.13;;;197.55;;
17197;SDS011;8715;51.010;6.812;2022-12-11T11:01:48;210.73;;;197.38;;
17197;SDS011;8715;51.010;6.812;2022-12-11T11:04:14;208.80;;;195.80;;
17197;SDS011;8715;51.010;6.812;2022-12-11T11:06:44;215.23;;;201.88;;
17197;SDS011;8715;51.010;6.812;2022-12-11T11:09:28;196.73;;;182.40;;
17197;SDS011;8715;51.010;6.812;2022-12-11T11:11:56;210.95;;;197.80;;
17197;SDS011;8715;51.010;6.812;2022-12-11T11:14:21;222.82;;;208.60;;
17197;SDS011;8715;51.010;6.812;2022-12-11T11:16:51;214.35;;;200.90;;
17197;SDS011;8715;51.010;6.812;2022-12-11T11:19:26;209.85;;;196.07;;
17197;SDS011;8715;51.010;6.812;2022-12-11T11:21:54;200.45;;;188.07;;
17197;SDS011;8715;51.010;6.812;2022-12-11T11:24:29;204.48;;;191.60;;
17197;SDS011;8715;51.010;6.812;2022-12-11T11:29:59;214.43;;;200.73;;
17197;SDS011;8715;51.010;6.812;2022-12-11T11:32:32;199.48;;;185.85;;
17197;SDS011;8715;51.010;6.812;2022-12-11T11:37:42;225.85;;;212.07;;
17197;SDS011;8715;51.010;6.812;2022-12-11T11:40:20;214.00;;;199.15;;
17197;SDS011;8715;51.010;6.812;2022-12-11T11:45:35;201.43;;;187.40;;
17197;SDS011;8715;51.010;6.812;2022-12-11T11:51:15;214.07;;;200.63;;
17197;SDS011;8715;51.010;6.812;2022-12-11T11:53:42;199.25;;;185.75;;
17197;SDS011;8715;51.010;6.812;2022-12-11T11:56:16;199.77;;;186.68;;
17197;SDS011;8715;51.010;6.812;2022-12-11T12:01:27;206.20;;;193.15;;
17197;SDS011;8715;51.010;6.812;2022-12-11T12:03:53;195.00;;;181.57;;
17197;SDS011;8715;51.010;6.812;2022-12-11T12:09:19;198.63;;;185.43;;
17197;SDS011;8715;51.010;6.812;2022-12-11T12:14:34;202.82;;;189.77;;
17197;SDS011;8715;51.010;6.812;2022-12-11T12:27:44;208.75;;;194.85;;
17197;SDS011;8715;51.010;6.812;2022-12-11T12:30:14;204.18;;;189.68;;
17197;SDS011;8715;51.010;6.812;2022-12-11T12:33:01;208.13;;;194.25;;
17197;SDS011;8715;51.010;6.812;2022-12-11T12:35:34;205.15;;;192.48;;
17197;SDS011;8715;51.010;6.812;2022-12-11T12:46:39;200.80;;;188.00;;
17197;SDS011;8715;51.010;6.812;2022-12-11T12:49:11;205.27;;;190.55;;
17197;SDS011;8715;51.010;6.812;2022-12-11T12:51:49;208.40;;;195.05;;
17197;SDS011;8715;51.010;6.812;2022-12-11T12:54:15;218.60;;;205.13;;
17197;SDS011;8715;51.010;6.812;2022-12-11T12:56:42;210.13;;;196.55;;
17197;SDS011;8715;51.010;6.812;2022-12-11T12:59:24;206.25;;;192.32;;
17197;SDS011;8715;51.010;6.812;2022-12-11T13:01:58;201.10;;;188.90;;
17197;SDS011;8715;51.010;6.812;2022-12-11T13:04:26;201.50;;;188.55;;
17197;SDS011;8715;51.010;6.812;2022-12-11T13:06:52;213.82;;;200.80;;
17197;SDS011;8715;51.010;6.812;2022-12-11T13:09:21;216.20;;;202.98;;
17197;SDS011;8715;51.010;6.812;2022-12-11T13:16:46;243.97;;;228.53;;
17197;SDS011;8715;51.010;6.812;2022-12-11T13:27:23;203.57;;;189.47;;
17197;SDS011;8715;51.010;6.812;2022-12-11T13:29:48;199.18;;;186.10;;
17197;SDS011;8715;51.010;6.812;2022-12-11T13:34:43;215.32;;;202.23;;
17197;SDS011;8715;51.010;6.812;2022-12-11T13:37:30;206.85;;;193.27;;
17197;SDS011;8715;51.010;6.812;2022-12-11T13:40:02;220.90;;;206.48;;
17197;SDS011;8715;51.010;6.812;2022-12-11T13:42:32;196.00;;;183.18;;
17197;SDS011;8715;51.010;6.812;2022-12-11T13:44:58;227.57;;;213.45;;
17197;SDS011;8715;51.010;6.812;2022-12-11T13:47:24;218.70;;;205.18;;
17197;SDS011;8715;51.010;6.812;2022-12-11T13:49:53;220.80;;;207.18;;
17197;SDS011;8715;51.010;6.812;2022-12-11T13:52:24;219.45;;;205.45;;
17197;SDS011;8715;51.010;6.812;2022-12-11T13:54:53;220.25;;;205.52;;
17197;SDS011;8715;51.010;6.812;2022-12-11T13:57:23;234.40;;;219.50;;
17197;SDS011;8715;51.010;6.812;2022-12-11T13:59:54;209.65;;;196.60;;
17197;SDS011;8715;51.010;6.812;2022-12-11T14:02:22;234.20;;;219.45;;
17197;SDS011;8715;51.010;6.812;2022-12-11T14:04:54;222.43;;;207.85;;
17197;SDS011;8715;51.010;6.812;2022-12-11T14:10:27;238.57;;;224.13;;
17197;SDS011;8715;51.010;6.812;2022-12-11T14:12:59;228.20;;;214.35;;
17197;SDS011;8715;51.010;6.812;2022-12-11T14:15:27;220.60;;;206.45;;
17197;SDS011;8715;51.010;6.812;2022-12-11T14:17:54;231.70;;;217.55;;
17197;SDS011;8715;51.010;6.812;2022-12-11T14:20:21;229.32;;;214.80;;
17197;SDS011;8715;51.010;6.812;2022-12-11T14:22:48;226.52;;;211.85;;
17197;SDS011;8715;51.010;6.812;2022-12-11T14:25:21;202.98;;;190.40;;
17197;SDS011;8715;51.010;6.812;2022-12-11T14:27:49;216.40;;;202.73;;
17197;SDS011;8715;51.010;6.812;2022-12-11T14:30:24;218.88;;;204.90;;
17197;SDS011;8715;51.010;6.812;2022-12-11T14:32:52;221.95;;;208.63;;
17197;SDS011;8715;51.010;6.812;2022-12-11T14:35:31;221.60;;;207.48;;
17197;SDS011;8715;51.010;6.812;2022-12-11T14:37:57;214.68;;;200.80;;
17197;SDS011;8715;51.010;6.812;2022-12-11T14:40:37;224.38;;;210.05;;
17197;SDS011;8715;51.010;6.812;2022-12-11T14:45:54;219.43;;;205.27;;
17197;SDS011;8715;51.010;6.812;2022-12-11T14:48:25;206.13;;;193.80;;
17197;SDS011;8715;51.010;6.812;2022-12-11T14:50:53;225.98;;;212.25;;
17197;SDS011;8715;51.010;6.812;2022-12-11T14:53:22;242.30;;;228.30;;
17197;SDS011;8715;51.010;6.812;2022-12-11T14:55:53;218.13;;;205.45;;
17197;SDS011;8715;51.010;6.812;2022-12-11T14:58:24;259.98;;;245.95;;
17197;SDS011;8715;51.010;6.812;2022-12-11T15:03:33;237.50;;;223.68;;
17197;SDS011;8715;51.010;6.812;2022-12-11T15:05:59;213.02;;;200.15;;
17197;SDS011;8715;51.010;6.812;2022-12-11T15:08:26;210.77;;;198.07;;
17197;SDS011;8715;51.010;6.812;2022-12-11T15:11:06;219.30;;;205.82;;
17197;SDS011;8715;51.010;6.812;2022-12-11T15:13:35;223.38;;;209.27;;
17197;SDS011;8715;51.010;6.812;2022-12-11T15:16:24;204.93;;;192.40;;
17197;SDS011;8715;51.010;6.812;2022-12-11T15:18:52;208.23;;;195.65;;
17197;SDS011;8715;51.010;6.812;2022-12-11T15:21:26;222.27;;;209.48;;
17197;SDS011;8715;51.010;6.812;2022-12-11T15:23:54;197.05;;;184.70;;
17197;SDS011;8715;51.010;6.812;2022-12-11T15:26:37;223.40;;;209.70;;
17197;SDS011;8715;51.010;6.812;2022-12-11T15:34:34;201.70;;;189.07;;
17197;SDS011;8715;51.010;6.812;2022-12-11T15:37:20;214.98;;;202.00;;
17197;SDS011;8715;51.010;6.812;2022-12-11T15:39:48;204.50;;;190.73;;
17197;SDS011;8715;51.010;6.812;2022-12-11T15:42:17;199.98;;;187.65;;
17197;SDS011;8715;51.010;6.812;2022-12-11T15:44:54;201.80;;;188.75;;
17197;SDS011;8715;51.010;6.812;2022-12-11T15:47:24;209.68;;;196.45;;
17197;SDS011;8715;51.010;6.812;2022-12-11T15:50:00;213.27;;;199.90;;
17197;SDS011;8715;51.010;6.812;2022-12-11T15:52:27;207.15;;;194.80;;
17197;SDS011;8715;51.010;6.812;2022-12-11T15:54:52;239.23;;;215.77;;
17197;SDS011;8715;51.010;6.812;2022-12-11T15:57:21;213.05;;;199.50;;
17197;SDS011;8715;51.010;6.812;2022-12-11T16:02:13;184.73;;;173.60;;
17197;SDS011;8715;51.010;6.812;2022-12-11T16:04:39;201.00;;;188.48;;
17197;SDS011;8715;51.010;6.812;2022-12-11T16:07:05;208.20;;;195.70;;
17197;SDS011;8715;51.010;6.812;2022-12-11T16:09:33;203.32;;;190.18;;
17197;SDS011;8715;51.010;6.812;2022-12-11T16:11:58;246.82;;;222.02;;
17197;SDS011;8715;51.010;6.812;2022-12-11T16:14:24;210.32;;;195.10;;